Aérodrome :
LOGIN :

S'inscrire | Disclaimer

   EN    FR    IT 

 










Légende :    VFR   VFR Marginal   IFR   IFR Intensif   IFR Très Intensif
Visi : 
Plafond : 
>= 8 km
>= 3000ft
5 à 8 km
1000 à 3000 ft
1500m à 5 km
500 à 1000 ft
800 à 1500m
200 à 500 ft
< 800m
< 200 ft
Symboles :   Orages  Brouillard  Fortes neiges  Fortes précipitations  Vent > 20 kt
SIGMETs :   Divers  Orages  Givrage  Turbulence  Onde Orograph.  Cendres Volcan.






- Altitude de l'aérodrome : 313 ft
- Code IATA : LEH


LFOH - Le Havre Octeville

DERNIER METAR :
  • 232030Z AUTO 33008KT 0650 R22/0800N FG VV/// 09/09 Q1025

METARs EXPIRÉS :
  • 232000Z AUTO 30009KT 5000 BR BKN003 OVC009 09/09 Q1025
  • 231930Z AUTO 29011KT 7000 BKN002 OVC011 10/09 Q1025
  • 231900Z AUTO 28013KT 3200 R22/1300U BR VV/// 10/10 Q1025 TEMPO 0600 FG
  • 231830Z AUTO 29015KT 0900 0600 R22/1100D FG VV/// 10/10 Q1025 BECMG 9999 NSW BKN025
  • 231800Z AUTO 27014KT 0800 R22/1200U FG VV/// 10/10 Q1024 TEMPO 25025G35KT BECMG 9999 NSW BKN025

TAF AMD TAF LFOH
Valide du 23 à 18h jusqu'au 24 à 12h UTC


231828Z 2318/2412 27012KT 3000 BR OVC003
TEMPO 2318/2402 0600 FG VV///
TEMPO 2402/2409 1200 DZRA
BECMG 2409/2412 23020G30KT
ATIS : +33 2 35 54 64 93



MET'MAP, la Météo Aéronautique d'un coup d'oeil ! - Copyright ORBIFLY Décembre 2007 - Disclaimer

ORBIFLY MET'MAP TEAM :

Programmation & Développement : Alexandra Zaïnal
Sur une idée originale de : Baudouin d'Aumeries
Assistance à la programmation : Marc-Olivier Méhu
Soutien technique & logistique : Manuel Goepfert

Contact : metmap@orbifly.com




SOURCES & CREDITS :

   NOAA